Time;durP1;ratioP1;P1;durP2;ratioP2;P2;SDS_P1;SDS_P2;PMS_P1;PMS_P2;Temp;Humidity;BMP_temperature;BMP_pressure;BME280_temperature;BME280_humidity;BME280_pressure;Samples;Min_cycle;Max_cycle;Signal;HPM_P1;HPM_P2
2022/05/15 00:00:42;;;;;;;6.78;3.80;;;;;;;;;;526908;28;1471;-80
2022/05/15 00:00:58;;;;;;;6.63;3.78;;;;;;;;;;527250;28;1608;-81
2022/05/15 00:01:13;;;;;;;5.93;3.60;;;;;;;;;;526476;28;1514;-81
2022/05/15 00:01:29;;;;;;;6.25;3.80;;;;;;;;;;526986;28;1683;-81
2022/05/15 00:01:44;;;;;;;5.80;3.77;;;;;;;;;;527026;28;1326;-81
2022/05/15 00:01:59;;;;;;;6.50;3.60;;;;;;;;;;526909;28;1363;-81
2022/05/15 00:02:15;;;;;;;8.13;3.75;;;;;;;;;;526998;28;1659;-81
2022/05/15 00:02:30;;;;;;;7.73;3.83;;;;;;;;;;526459;28;1645;-81
2022/05/15 00:02:45;;;;;;;6.50;4.00;;;;;;;;;;527004;28;1929;-81
2022/05/15 00:03:01;;;;;;;6.38;4.10;;;;;;;;;;526663;28;1498;-81
2022/05/15 00:03:19;;;;;;;6.40;3.93;;;;;;;;;;527161;28;1466;-81
2022/05/15 00:03:35;;;;;;;7.30;3.92;;;;;;;;;;527616;28;1654;-81
2022/05/15 00:03:50;;;;;;;9.10;3.90;;;;;;;;;;528243;28;938;-81
2022/05/15 00:04:07;;;;;;;9.40;3.78;;;;;;;;;;527836;28;1617;-81
2022/05/15 00:04:23;;;;;;;8.95;3.80;;;;;;;;;;528302;28;882;-81
2022/05/15 00:04:38;;;;;;;7.70;4.10;;;;;;;;;;526122;28;1275;-81
2022/05/15 00:04:55;;;;;;;7.88;4.20;;;;;;;;;;523675;28;1525;-81
2022/05/15 00:05:10;;;;;;;7.53;3.85;;;;;;;;;;524103;28;930;-81
2022/05/15 00:05:25;;;;;;;6.60;3.80;;;;;;;;;;523789;28;1438;-81
2022/05/15 00:05:43;;;;;;;7.23;3.87;;;;;;;;;;524041;28;887;-81
2022/05/15 00:06:01;;;;;;;8.05;3.78;;;;;;;;;;521342;28;1509;-81
2022/05/15 00:06:17;;;;;;;6.47;3.78;;;;;;;;;;519597;28;1353;-81
2022/05/15 00:06:32;;;;;;;7.10;3.93;;;;;;;;;;521920;28;1515;-81
2022/05/15 00:06:48;;;;;;;8.90;4.30;;;;;;;;;;524956;28;896;-81
2022/05/15 00:07:04;;;;;;;8.03;4.03;;;;;;;;;;525945;28;1033;-81
2022/05/15 00:07:20;;;;;;;6.03;3.72;;;;;;;;;;526023;28;990;-81
2022/05/15 00:07:35;;;;;;;7.63;3.90;;;;;;;;;;525120;28;1598;-81
2022/05/15 00:07:52;;;;;;;8.05;4.00;;;;;;;;;;524622;28;2044;-81
2022/05/15 00:08:09;;;;;;;6.93;3.85;;;;;;;;;;526584;28;1369;-81
2022/05/15 00:08:26;;;;;;;7.38;3.70;;;;;;;;;;527965;28;1614;-81
2022/05/15 00:08:42;;;;;;;5.72;3.60;;;;;;;;;;527976;28;943;-81
2022/05/15 00:08:58;;;;;;;5.77;3.70;;;;;;;;;;525878;28;1472;-81
2022/05/15 00:09:14;;;;;;;6.93;3.80;;;;;;;;;;524750;28;1799;-80
2022/05/15 00:09:29;;;;;;;8.07;3.70;;;;;;;;;;525326;28;1495;-80
2022/05/15 00:09:45;;;;;;;7.13;3.77;;;;;;;;;;523929;28;1422;-80
2022/05/15 00:10:03;;;;;;;6.13;3.70;;;;;;;;;;522245;28;1583;-80
2022/05/15 00:10:19;;;;;;;7.78;3.80;;;;;;;;;;521824;28;1409;-80
2022/05/15 00:10:34;;;;;;;8.63;3.95;;;;;;;;;;521727;28;1937;-80
2022/05/15 00:10:51;;;;;;;7.63;4.20;;;;;;;;;;522915;28;1405;-80
2022/05/15 00:11:09;;;;;;;6.68;4.18;;;;;;;;;;524276;28;1031;-80
2022/05/15 00:11:24;;;;;;;5.95;3.83;;;;;;;;;;523878;28;1568;-80
2022/05/15 00:11:40;;;;;;;5.93;3.63;;;;;;;;;;523029;28;1529;-80
2022/05/15 00:11:55;;;;;;;6.87;3.70;;;;;;;;;;525868;28;1183;-80
2022/05/15 00:12:11;;;;;;;7.53;3.90;;;;;;;;;;526553;28;1342;-80
2022/05/15 00:12:26;;;;;;;7.43;3.92;;;;;;;;;;527939;28;1397;-80
2022/05/15 00:12:42;;;;;;;7.13;3.70;;;;;;;;;;528200;28;1361;-80
2022/05/15 00:12:57;;;;;;;7.27;3.73;;;;;;;;;;528115;28;1488;-80
2022/05/15 00:13:13;;;;;;;6.93;3.90;;;;;;;;;;528176;28;1061;-80
2022/05/15 00:13:30;;;;;;;6.82;3.70;;;;;;;;;;527993;28;1559;-80
2022/05/15 00:13:47;;;;;;;7.38;3.90;;;;;;;;;;525682;28;1740;-80
2022/05/15 00:14:03;;;;;;;7.05;3.70;;;;;;;;;;525868;28;1563;-81
2022/05/15 00:14:18;;;;;;;6.72;3.53;;;;;;;;;;525745;28;1429;-81
2022/05/15 00:14:34;;;;;;;5.90;3.57;;;;;;;;;;524984;28;1170;-81
2022/05/15 00:14:49;;;;;;;6.28;3.60;;;;;;;;;;526260;28;1283;-81
2022/05/15 00:15:05;;;;;;;6.60;3.53;;;;;;;;;;524690;28;1527;-81
2022/05/15 00:15:21;;;;;;;7.22;3.50;;;;;;;;;;524335;28;1717;-81
2022/05/15 00:15:37;;;;;;;7.70;3.67;;;;;;;;;;525935;28;1143;-81
2022/05/15 00:15:53;;;;;;;7.50;3.83;;;;;;;;;;526260;28;911;-81
2022/05/15 00:16:08;;;;;;;7.00;3.73;;;;;;;;;;526250;28;875;-81
2022/05/15 00:16:25;;;;;;;6.78;3.90;;;;;;;;;;526765;28;886;-81
2022/05/15 00:16:40;;;;;;;6.90;4.00;;;;;;;;;;527665;28;1463;-81
2022/05/15 00:16:55;;;;;;;7.50;4.07;;;;;;;;;;528095;28;978;-81
2022/05/15 00:17:16;;;;;;;7.78;3.97;;;;;;;;;;527578;28;1670;-81
2022/05/15 00:17:31;;;;;;;6.75;3.60;;;;;;;;;;524810;28;1618;-81
2022/05/15 00:17:47;;;;;;;6.57;3.60;;;;;;;;;;527301;28;808;-81
2022/05/15 00:18:03;;;;;;;7.13;3.83;;;;;;;;;;526504;28;1144;-81
2022/05/15 00:18:20;;;;;;;7.30;4.30;;;;;;;;;;526146;28;773;-82
2022/05/15 00:18:40;;;;;;;7.15;4.13;;;;;;;;;;523901;28;1441;-81
2022/05/15 00:18:55;;;;;;;6.50;3.60;;;;;;;;;;525005;28;1402;-81
2022/05/15 00:19:11;;;;;;;7.00;3.50;;;;;;;;;;525087;28;1309;-81
2022/05/15 00:19:27;;;;;;;6.67;3.60;;;;;;;;;;525307;28;986;-81
2022/05/15 00:19:43;;;;;;;7.90;3.70;;;;;;;;;;523770;28;1191;-81
2022/05/15 00:19:58;;;;;;;10.13;4.00;;;;;;;;;;524490;28;1138;-81
2022/05/15 00:20:13;;;;;;;9.70;4.03;;;;;;;;;;526232;28;748;-81
2022/05/15 00:20:29;;;;;;;7.78;3.90;;;;;;;;;;526091;28;828;-81
2022/05/15 00:20:45;;;;;;;7.35;3.80;;;;;;;;;;524113;28;1173;-81
2022/05/15 00:21:00;;;;;;;7.43;3.83;;;;;;;;;;524200;28;911;-81
2022/05/15 00:21:17;;;;;;;7.97;3.83;;;;;;;;;;524051;28;1180;-81
2022/05/15 00:21:33;;;;;;;8.00;3.83;;;;;;;;;;524806;28;947;-81
2022/05/15 00:21:49;;;;;;;7.40;3.97;;;;;;;;;;526028;28;1358;-81
2022/05/15 00:22:07;;;;;;;7.33;4.10;;;;;;;;;;526060;28;1343;-81
2022/05/15 00:22:25;;;;;;;7.13;3.90;;;;;;;;;;526371;28;871;-81
2022/05/15 00:22:42;;;;;;;6.72;3.80;;;;;;;;;;526290;28;2061;-81
2022/05/15 00:22:57;;;;;;;7.53;3.88;;;;;;;;;;526367;28;1028;-81
2022/05/15 00:23:14;;;;;;;8.27;3.80;;;;;;;;;;526271;28;840;-81
2022/05/15 00:23:29;;;;;;;6.50;3.70;;;;;;;;;;526248;28;1305;-81
2022/05/15 00:23:45;;;;;;;6.43;3.60;;;;;;;;;;524270;28;1250;-81
2022/05/15 00:24:00;;;;;;;6.00;3.50;;;;;;;;;;525366;28;1550;-81
2022/05/15 00:24:16;;;;;;;6.07;3.70;;;;;;;;;;526078;28;1580;-81
2022/05/15 00:24:31;;;;;;;6.83;3.70;;;;;;;;;;527043;28;1385;-81
2022/05/15 00:24:47;;;;;;;7.35;3.63;;;;;;;;;;528346;28;938;-81
2022/05/15 00:25:03;;;;;;;8.47;3.70;;;;;;;;;;528576;28;1069;-81
2022/05/15 00:25:19;;;;;;;8.75;3.83;;;;;;;;;;528363;28;1341;-81
2022/05/15 00:25:35;;;;;;;8.03;4.03;;;;;;;;;;528998;27;828;-81
2022/05/15 00:25:51;;;;;;;6.68;4.00;;;;;;;;;;528227;28;1189;-81
2022/05/15 00:26:06;;;;;;;5.88;3.70;;;;;;;;;;527953;28;1609;-81
2022/05/15 00:26:21;;;;;;;5.93;3.70;;;;;;;;;;528272;28;804;-81
2022/05/15 00:26:37;;;;;;;6.00;3.70;;;;;;;;;;525568;28;1543;-81
2022/05/15 00:26:52;;;;;;;6.03;3.70;;;;;;;;;;524032;28;1261;-81
2022/05/15 00:27:07;;;;;;;5.57;3.70;;;;;;;;;;523865;28;1375;-81
2022/05/15 00:27:23;;;;;;;6.80;3.83;;;;;;;;;;523998;28;1449;-81
2022/05/15 00:27:38;;;;;;;7.17;3.70;;;;;;;;;;523980;28;1428;-81
2022/05/15 00:27:53;;;;;;;6.07;3.60;;;;;;;;;;523628;28;1500;-81
2022/05/15 00:28:10;;;;;;;6.60;3.85;;;;;;;;;;522744;28;1600;-81
2022/05/15 00:28:26;;;;;;;7.63;3.92;;;;;;;;;;523994;28;1468;-81
2022/05/15 00:28:41;;;;;;;6.53;3.78;;;;;;;;;;525716;28;1811;-81
2022/05/15 00:28:57;;;;;;;6.22;3.53;;;;;;;;;;528355;28;1265;-81
2022/05/15 00:29:12;;;;;;;7.23;3.70;;;;;;;;;;528468;28;1578;-81
2022/05/15 00:29:30;;;;;;;7.05;3.90;;;;;;;;;;527962;28;1715;-81
2022/05/15 00:29:45;;;;;;;8.13;3.90;;;;;;;;;;527769;28;1674;-81
2022/05/15 00:30:00;;;;;;;7.87;3.80;;;;;;;;;;525986;28;1155;-81
2022/05/15 00:30:17;;;;;;;7.15;3.83;;;;;;;;;;526117;28;1001;-81
2022/05/15 00:30:35;;;;;;;6.70;3.72;;;;;;;;;;526265;28;1017;-81
2022/05/15 00:30:51;;;;;;;6.18;3.60;;;;;;;;;;524959;28;1734;-81
2022/05/15 00:31:07;;;;;;;5.80;3.70;;;;;;;;;;526266;28;918;-81
2022/05/15 00:31:23;;;;;;;6.78;3.70;;;;;;;;;;525908;28;1597;-81
2022/05/15 00:31:39;;;;;;;8.43;3.90;;;;;;;;;;526338;28;2041;-81
2022/05/15 00:31:54;;;;;;;8.00;4.00;;;;;;;;;;525935;28;1598;-81
2022/05/15 00:32:10;;;;;;;7.23;3.90;;;;;;;;;;527696;28;1401;-81
2022/05/15 00:32:25;;;;;;;6.63;3.67;;;;;;;;;;528400;28;819;-81
2022/05/15 00:32:40;;;;;;;8.13;3.60;;;;;;;;;;526372;28;1534;-81
2022/05/15 00:32:56;;;;;;;8.80;3.60;;;;;;;;;;527982;28;1178;-81
2022/05/15 00:33:11;;;;;;;7.40;3.80;;;;;;;;;;528231;28;827;-81
2022/05/15 00:33:27;;;;;;;6.72;3.90;;;;;;;;;;526902;28;1494;-81
2022/05/15 00:33:44;;;;;;;7.27;3.90;;;;;;;;;;526499;28;978;-81
2022/05/15 00:33:59;;;;;;;7.80;3.90;;;;;;;;;;525837;28;1637;-81
2022/05/15 00:34:15;;;;;;;7.10;3.80;;;;;;;;;;526289;28;1001;-81
2022/05/15 00:34:30;;;;;;;7.13;3.80;;;;;;;;;;526781;28;970;-81
2022/05/15 00:34:45;;;;;;;6.70;3.80;;;;;;;;;;526666;28;1159;-81
2022/05/15 00:35:01;;;;;;;6.50;3.92;;;;;;;;;;528446;28;847;-81
2022/05/15 00:35:17;;;;;;;7.97;3.90;;;;;;;;;;527575;28;1538;-81
2022/05/15 00:35:35;;;;;;;8.50;3.90;;;;;;;;;;528156;28;1285;-81
2022/05/15 00:35:52;;;;;;;6.60;3.97;;;;;;;;;;528090;28;1483;-81
2022/05/15 00:36:08;;;;;;;6.80;3.95;;;;;;;;;;527176;28;1506;-81
2022/05/15 00:36:23;;;;;;;7.40;3.87;;;;;;;;;;528457;28;796;-81
2022/05/15 00:36:39;;;;;;;7.20;3.70;;;;;;;;;;527818;28;1547;-81
2022/05/15 00:36:54;;;;;;;7.07;3.70;;;;;;;;;;528265;28;804;-81
2022/05/15 00:37:09;;;;;;;6.30;3.90;;;;;;;;;;528050;28;1578;-81
2022/05/15 00:37:25;;;;;;;6.38;3.90;;;;;;;;;;528476;28;931;-81
2022/05/15 00:37:40;;;;;;;8.27;3.90;;;;;;;;;;525873;28;1563;-81
2022/05/15 00:37:56;;;;;;;7.93;3.90;;;;;;;;;;525853;28;1488;-81
2022/05/15 00:38:11;;;;;;;6.43;3.83;;;;;;;;;;526012;28;1083;-81
2022/05/15 00:38:27;;;;;;;7.53;3.90;;;;;;;;;;526030;28;1913;-81
2022/05/15 00:38:42;;;;;;;7.20;3.80;;;;;;;;;;525763;28;1606;-81
2022/05/15 00:38:58;;;;;;;6.82;3.70;;;;;;;;;;526333;28;824;-81
2022/05/15 00:39:14;;;;;;;6.75;3.70;;;;;;;;;;527766;28;1439;-81
2022/05/15 00:39:29;;;;;;;6.70;3.70;;;;;;;;;;526306;28;1080;-81
2022/05/15 00:39:44;;;;;;;7.13;3.80;;;;;;;;;;528063;28;868;-81
2022/05/15 00:40:00;;;;;;;7.90;3.90;;;;;;;;;;526028;28;1162;-81
2022/05/15 00:40:18;;;;;;;6.97;3.63;;;;;;;;;;526004;28;1137;-81
2022/05/15 00:40:38;;;;;;;6.25;3.50;;;;;;;;;;523890;28;2109;-81
2022/05/15 00:40:54;;;;;;;6.35;3.75;;;;;;;;;;524225;28;891;-80
2022/05/15 00:41:11;;;;;;;7.70;3.83;;;;;;;;;;524064;28;1003;-80
2022/05/15 00:41:26;;;;;;;7.93;4.10;;;;;;;;;;525692;28;1242;-80
2022/05/15 00:41:42;;;;;;;7.05;4.15;;;;;;;;;;526292;28;836;-80
2022/05/15 00:41:57;;;;;;;8.20;3.97;;;;;;;;;;527919;28;907;-80
2022/05/15 00:42:12;;;;;;;8.03;3.97;;;;;;;;;;526157;28;1138;-80
2022/05/15 00:42:28;;;;;;;6.65;4.00;;;;;;;;;;526005;28;1006;-80
2022/05/15 00:42:43;;;;;;;6.03;3.77;;;;;;;;;;525906;28;1110;-80
2022/05/15 00:42:59;;;;;;;7.72;3.83;;;;;;;;;;525928;28;1349;-80
2022/05/15 00:43:39;;;;;;;7.67;4.10;;;;;;;;;;526232;28;899;-80
2022/05/15 00:43:59;;;;;;;7.72;3.80;;;;;;;;;;526211;28;911;-80
2022/05/15 00:44:14;;;;;;;6.35;3.85;;;;;;;;;;528288;28;1077;-80
2022/05/15 00:44:30;;;;;;;6.18;3.95;;;;;;;;;;526185;28;1202;-80
2022/05/15 00:44:45;;;;;;;6.90;4.00;;;;;;;;;;523769;28;1278;-81
2022/05/15 00:45:01;;;;;;;6.93;4.03;;;;;;;;;;524236;28;1598;-81
2022/05/15 00:45:18;;;;;;;6.75;4.00;;;;;;;;;;524586;28;1066;-81
2022/05/15 00:45:34;;;;;;;6.57;4.00;;;;;;;;;;525790;28;856;-81
2022/05/15 00:45:50;;;;;;;8.05;3.97;;;;;;;;;;523050;28;1652;-81
2022/05/15 00:46:09;;;;;;;9.67;4.13;;;;;;;;;;521964;28;888;-81
2022/05/15 00:46:31;;;;;;;7.57;3.95;;;;;;;;;;524010;28;1472;-81
2022/05/15 00:46:47;;;;;;;6.72;3.72;;;;;;;;;;527643;28;1566;-81
2022/05/15 00:47:02;;;;;;;7.63;3.93;;;;;;;;;;527038;28;1633;-81
2022/05/15 00:47:18;;;;;;;8.80;3.92;;;;;;;;;;527294;27;2037;-81
2022/05/15 00:47:34;;;;;;;8.47;3.87;;;;;;;;;;527972;28;867;-81
2022/05/15 00:47:50;;;;;;;7.68;3.83;;;;;;;;;;527836;28;1151;-81
2022/05/15 00:48:06;;;;;;;7.40;4.00;;;;;;;;;;527440;28;1633;-81
2022/05/15 00:48:22;;;;;;;7.75;4.13;;;;;;;;;;526002;28;1272;-81
2022/05/15 00:48:37;;;;;;;7.30;4.10;;;;;;;;;;526076;28;967;-81
2022/05/15 00:48:53;;;;;;;7.93;4.13;;;;;;;;;;524596;28;1279;-81
2022/05/15 00:49:12;;;;;;;6.97;3.88;;;;;;;;;;524048;28;1218;-81
2022/05/15 00:49:28;;;;;;;6.20;3.70;;;;;;;;;;521927;28;1361;-81
2022/05/15 00:49:43;;;;;;;5.70;3.72;;;;;;;;;;522217;28;817;-81
2022/05/15 00:49:59;;;;;;;5.07;3.70;;;;;;;;;;522144;28;910;-81
2022/05/15 00:50:19;;;;;;;6.43;4.00;;;;;;;;;;523118;28;781;-81
2022/05/15 00:50:38;;;;;;;7.35;4.00;;;;;;;;;;522173;28;1552;-81
2022/05/15 00:50:53;;;;;;;6.20;3.83;;;;;;;;;;525959;28;968;-81
2022/05/15 00:51:15;;;;;;;6.32;3.80;;;;;;;;;;528054;28;1062;-81
2022/05/15 00:51:50;;;;;;;6.03;3.72;;;;;;;;;;527822;28;1593;-81
2022/05/15 00:52:11;;;;;;;7.20;3.95;;;;;;;;;;527646;28;1411;-81
2022/05/15 00:52:29;;;;;;;8.07;3.80;;;;;;;;;;524181;28;974;-81
2022/05/15 00:52:48;;;;;;;7.72;3.90;;;;;;;;;;524734;28;1583;-81
2022/05/15 00:53:08;;;;;;;6.97;3.70;;;;;;;;;;524200;28;879;-81
2022/05/15 00:53:23;;;;;;;7.10;3.70;;;;;;;;;;525997;28;1382;-81
2022/05/15 00:53:40;;;;;;;6.10;3.70;;;;;;;;;;527722;28;1558;-81
2022/05/15 00:54:03;;;;;;;7.03;3.88;;;;;;;;;;527998;28;1577;-81
2022/05/15 00:54:37;;;;;;;8.18;4.00;;;;;;;;;;528937;27;1159;-81
2022/05/15 00:55:04;;;;;;;6.70;4.00;;;;;;;;;;528039;28;1024;-81
2022/05/15 00:55:27;;;;;;;7.72;3.80;;;;;;;;;;528214;28;966;-81
2022/05/15 00:55:46;;;;;;;6.10;3.90;;;;;;;;;;528128;28;1342;-81
2022/05/15 00:56:02;;;;;;;6.78;3.83;;;;;;;;;;526124;28;1420;-81
2022/05/15 00:56:21;;;;;;;7.18;3.88;;;;;;;;;;525469;28;1539;-81
2022/05/15 00:56:42;;;;;;;6.87;3.90;;;;;;;;;;524946;28;1650;-81
2022/05/15 00:57:02;;;;;;;6.00;3.70;;;;;;;;;;522047;28;1222;-81
2022/05/15 00:57:35;;;;;;;6.93;3.83;;;;;;;;;;522135;28;1037;-81
2022/05/15 00:57:54;;;;;;;5.50;4.00;;;;;;;;;;524610;28;1042;-81
2022/05/15 00:58:18;;;;;;;6.45;4.10;;;;;;;;;;527652;28;1248;-81
2022/05/15 00:58:39;;;;;;;5.85;4.00;;;;;;;;;;528299;28;1965;-81
2022/05/15 00:59:02;;;;;;;7.55;4.22;;;;;;;;;;530628;27;850;-81
2022/05/15 00:59:20;;;;;;;8.60;3.97;;;;;;;;;;530468;27;876;-81
2022/05/15 00:59:48;;;;;;;7.00;3.80;;;;;;;;;;529989;27;1447;-81
2022/05/15 01:00:17;;;;;;;6.32;3.88;;;;;;;;;;528386;27;1471;-81
2022/05/15 01:00:34;;;;;;;7.38;3.92;;;;;;;;;;529683;27;1414;-80
2022/05/15 01:00:50;;;;;;;5.97;4.10;;;;;;;;;;528276;28;1388;-80
2022/05/15 01:01:06;;;;;;;7.17;4.20;;;;;;;;;;527576;27;1897;-80
2022/05/15 01:01:21;;;;;;;7.63;4.05;;;;;;;;;;530436;27;923;-80
2022/05/15 01:01:37;;;;;;;8.30;4.13;;;;;;;;;;529844;27;1483;-80
2022/05/15 01:01:52;;;;;;;8.30;4.10;;;;;;;;;;529922;27;1376;-80
2022/05/15 01:02:12;;;;;;;7.75;4.28;;;;;;;;;;527978;28;1159;-80
2022/05/15 01:02:34;;;;;;;6.13;4.07;;;;;;;;;;525593;28;1570;-80
2022/05/15 01:03:19;;;;;;;6.20;4.10;;;;;;;;;;527563;28;1464;-80
2022/05/15 01:03:35;;;;;;;6.15;4.00;;;;;;;;;;518168;28;1631;-80
2022/05/15 01:03:50;;;;;;;6.57;4.10;;;;;;;;;;518686;28;1590;-80
2022/05/15 01:04:07;;;;;;;7.07;4.00;;;;;;;;;;528493;27;1404;-80
2022/05/15 01:04:22;;;;;;;7.00;4.03;;;;;;;;;;530435;27;1245;-80
2022/05/15 01:04:37;;;;;;;5.73;3.93;;;;;;;;;;530307;27;1219;-80
2022/05/15 01:04:53;;;;;;;5.18;3.72;;;;;;;;;;528118;28;1661;-80
2022/05/15 01:05:13;;;;;;;6.20;3.90;;;;;;;;;;528349;28;911;-80
2022/05/15 01:05:29;;;;;;;7.47;4.10;;;;;;;;;;528084;28;924;-80
2022/05/15 01:05:48;;;;;;;7.67;4.07;;;;;;;;;;527869;28;1554;-80
2022/05/15 01:06:03;;;;;;;7.15;4.05;;;;;;;;;;528208;28;1419;-81
2022/05/15 01:06:19;;;;;;;8.27;4.13;;;;;;;;;;528052;28;1919;-81
2022/05/15 01:06:36;;;;;;;9.80;4.40;;;;;;;;;;529635;27;1601;-81
2022/05/15 01:06:52;;;;;;;7.53;3.95;;;;;;;;;;529843;27;871;-81
2022/05/15 01:07:07;;;;;;;6.83;3.80;;;;;;;;;;530355;27;1157;-81
2022/05/15 01:07:22;;;;;;;7.40;4.03;;;;;;;;;;530433;27;878;-81
2022/05/15 01:07:38;;;;;;;8.13;4.23;;;;;;;;;;527718;28;1485;-81
2022/05/15 01:07:53;;;;;;;7.87;4.20;;;;;;;;;;528200;28;895;-81
2022/05/15 01:08:09;;;;;;;7.82;4.20;;;;;;;;;;525915;28;1455;-81
2022/05/15 01:08:28;;;;;;;8.15;4.20;;;;;;;;;;525039;28;1446;-81
2022/05/15 01:08:43;;;;;;;6.88;3.97;;;;;;;;;;525405;28;1370;-81
2022/05/15 01:09:01;;;;;;;6.28;4.07;;;;;;;;;;526423;28;1547;-81
2022/05/15 01:09:16;;;;;;;7.00;4.25;;;;;;;;;;524101;28;1362;-81
2022/05/15 01:09:32;;;;;;;6.75;4.00;;;;;;;;;;524347;28;1523;-81
2022/05/15 01:09:48;;;;;;;7.03;3.73;;;;;;;;;;526125;28;875;-81
2022/05/15 01:10:06;;;;;;;6.95;3.90;;;;;;;;;;526839;28;1546;-81
2022/05/15 01:10:21;;;;;;;7.40;4.30;;;;;;;;;;529666;27;1400;-81
2022/05/15 01:10:42;;;;;;;6.95;4.15;;;;;;;;;;530093;27;1533;-81
2022/05/15 01:11:05;;;;;;;6.75;4.00;;;;;;;;;;528037;27;1530;-81
2022/05/15 01:11:21;;;;;;;7.20;3.90;;;;;;;;;;529492;27;937;-81
2022/05/15 01:11:37;;;;;;;7.38;3.83;;;;;;;;;;530004;27;1553;-81
2022/05/15 01:11:52;;;;;;;6.47;3.80;;;;;;;;;;529886;27;1415;-81
2022/05/15 01:12:09;;;;;;;6.57;3.90;;;;;;;;;;529409;27;1581;-81
2022/05/15 01:12:25;;;;;;;6.75;3.95;;;;;;;;;;529787;27;918;-81
2022/05/15 01:12:42;;;;;;;7.95;4.00;;;;;;;;;;529842;27;1412;-81
2022/05/15 01:12:58;;;;;;;8.90;3.72;;;;;;;;;;529801;27;1466;-81
2022/05/15 01:13:15;;;;;;;8.20;3.97;;;;;;;;;;529942;27;1455;-81
2022/05/15 01:13:34;;;;;;;7.45;4.03;;;;;;;;;;530450;27;1308;-81
2022/05/15 01:13:52;;;;;;;5.55;3.75;;;;;;;;;;527696;28;1443;-81
2022/05/15 01:14:09;;;;;;;5.75;3.67;;;;;;;;;;525631;28;1468;-81
2022/05/15 01:14:25;;;;;;;8.13;3.90;;;;;;;;;;523339;28;1646;-81
2022/05/15 01:14:45;;;;;;;9.60;4.27;;;;;;;;;;523644;28;1175;-81
2022/05/15 01:15:01;;;;;;;8.30;4.32;;;;;;;;;;521848;28;1346;-81
2022/05/15 01:15:23;;;;;;;7.23;4.13;;;;;;;;;;523380;28;1596;-81
2022/05/15 01:15:40;;;;;;;6.88;4.03;;;;;;;;;;523698;28;1564;-81
2022/05/15 01:15:55;;;;;;;7.22;4.00;;;;;;;;;;524227;28;1406;-81
2022/05/15 01:16:12;;;;;;;8.40;4.07;;;;;;;;;;526136;28;831;-81
2022/05/15 01:16:28;;;;;;;8.35;4.13;;;;;;;;;;523982;28;1614;-81
2022/05/15 01:16:43;;;;;;;7.53;4.03;;;;;;;;;;525966;28;1855;-81
2022/05/15 01:16:59;;;;;;;7.68;4.00;;;;;;;;;;528067;28;884;-81
2022/05/15 01:17:15;;;;;;;7.00;4.10;;;;;;;;;;526392;28;855;-81
2022/05/15 01:17:30;;;;;;;7.17;4.10;;;;;;;;;;527062;28;1624;-81
2022/05/15 01:17:47;;;;;;;6.68;4.10;;;;;;;;;;526014;28;1687;-81
2022/05/15 01:18:04;;;;;;;6.05;3.85;;;;;;;;;;527828;28;1058;-81
2022/05/15 01:18:24;;;;;;;6.10;3.90;;;;;;;;;;525029;28;1221;-80
2022/05/15 01:18:40;;;;;;;6.93;4.20;;;;;;;;;;526591;28;1527;-80
2022/05/15 01:18:57;;;;;;;8.05;4.35;;;;;;;;;;528182;28;761;-80
2022/05/15 01:19:13;;;;;;;7.55;4.30;;;;;;;;;;528117;28;877;-80
2022/05/15 01:19:32;;;;;;;6.68;4.22;;;;;;;;;;527848;28;1577;-80
2022/05/15 01:19:47;;;;;;;6.05;3.90;;;;;;;;;;527040;28;1261;-80
2022/05/15 01:20:09;;;;;;;5.73;3.80;;;;;;;;;;527671;28;1534;-80
2022/05/15 01:20:28;;;;;;;7.07;3.85;;;;;;;;;;528165;28;1218;-81
2022/05/15 01:20:43;;;;;;;7.50;3.95;;;;;;;;;;527760;28;1565;-81
2022/05/15 01:21:02;;;;;;;8.13;3.97;;;;;;;;;;525434;28;1907;-81
2022/05/15 01:21:33;;;;;;;6.53;3.90;;;;;;;;;;525899;28;1700;-81
2022/05/15 01:21:55;;;;;;;8.15;3.80;;;;;;;;;;527550;28;1543;-81
2022/05/15 01:22:14;;;;;;;8.85;4.03;;;;;;;;;;527655;28;1463;-81
2022/05/15 01:22:30;;;;;;;7.10;4.00;;;;;;;;;;528262;27;1395;-81
2022/05/15 01:22:46;;;;;;;8.55;3.90;;;;;;;;;;529334;27;1616;-81
2022/05/15 01:23:02;;;;;;;9.13;4.25;;;;;;;;;;529047;27;1440;-81
2022/05/15 01:23:17;;;;;;;7.77;4.30;;;;;;;;;;529327;27;1705;-81
2022/05/15 01:23:32;;;;;;;6.28;3.92;;;;;;;;;;529685;27;1482;-81
2022/05/15 01:23:48;;;;;;;6.73;3.87;;;;;;;;;;529887;27;1521;-81
2022/05/15 01:24:05;;;;;;;6.53;3.60;;;;;;;;;;529931;27;1399;-81
2022/05/15 01:24:21;;;;;;;6.68;3.67;;;;;;;;;;529154;27;1457;-81
2022/05/15 01:24:37;;;;;;;7.10;4.00;;;;;;;;;;530284;27;986;-81
2022/05/15 01:24:52;;;;;;;6.43;4.10;;;;;;;;;;529805;27;1678;-81
2022/05/15 01:25:16;;;;;;;6.33;4.07;;;;;;;;;;526956;28;1478;-81
2022/05/15 01:25:34;;;;;;;7.47;3.90;;;;;;;;;;526440;28;966;-81
2022/05/15 01:25:50;;;;;;;8.15;4.10;;;;;;;;;;528594;28;1356;-81
2022/05/15 01:26:05;;;;;;;6.83;4.03;;;;;;;;;;527669;28;1510;-81
2022/05/15 01:26:22;;;;;;;7.13;4.10;;;;;;;;;;526068;28;886;-81
2022/05/15 01:26:38;;;;;;;7.13;4.10;;;;;;;;;;527964;28;1613;-81
2022/05/15 01:26:54;;;;;;;6.63;4.00;;;;;;;;;;526943;28;804;-81
2022/05/15 01:27:12;;;;;;;6.68;4.10;;;;;;;;;;525976;28;1202;-81
2022/05/15 01:27:27;;;;;;;6.75;4.10;;;;;;;;;;526052;28;915;-81
2022/05/15 01:28:05;;;;;;;6.80;4.20;;;;;;;;;;527921;28;827;-81
2022/05/15 01:28:23;;;;;;;6.93;3.90;;;;;;;;;;529998;27;1624;-81
2022/05/15 01:28:39;;;;;;;6.30;3.85;;;;;;;;;;527653;28;1515;-80
2022/05/15 01:28:54;;;;;;;7.00;4.00;;;;;;;;;;528135;28;1490;-80
2022/05/15 01:29:11;;;;;;;7.70;3.95;;;;;;;;;;527869;28;1246;-80
2022/05/15 01:29:29;;;;;;;6.20;3.88;;;;;;;;;;524050;28;1463;-80
2022/05/15 01:29:46;;;;;;;6.25;3.90;;;;;;;;;;521745;28;1622;-80
2022/05/15 01:30:02;;;;;;;5.78;4.15;;;;;;;;;;523241;28;887;-80
2022/05/15 01:30:18;;;;;;;6.85;4.30;;;;;;;;;;522881;28;1571;-80
2022/05/15 01:30:35;;;;;;;7.40;4.30;;;;;;;;;;525337;28;914;-81
2022/05/15 01:30:54;;;;;;;6.72;4.10;;;;;;;;;;525517;28;1676;-81
2022/05/15 01:31:10;;;;;;;6.20;4.00;;;;;;;;;;526002;28;1586;-81
2022/05/15 01:31:26;;;;;;;6.13;4.10;;;;;;;;;;529604;27;930;-81
2022/05/15 01:31:42;;;;;;;6.22;4.05;;;;;;;;;;529575;27;1313;-81
2022/05/15 01:31:57;;;;;;;7.10;4.00;;;;;;;;;;527367;28;1669;-81
2022/05/15 01:32:13;;;;;;;8.27;4.10;;;;;;;;;;525815;28;1167;-81
2022/05/15 01:32:28;;;;;;;7.95;4.10;;;;;;;;;;525976;28;843;-81
2022/05/15 01:32:44;;;;;;;7.30;4.20;;;;;;;;;;525422;28;1774;-81
2022/05/15 01:32:59;;;;;;;8.65;4.28;;;;;;;;;;525704;28;1614;-81
2022/05/15 01:33:15;;;;;;;8.43;4.20;;;;;;;;;;525929;28;918;-81
2022/05/15 01:33:30;;;;;;;7.93;4.20;;;;;;;;;;525754;28;1525;-81
2022/05/15 01:33:50;;;;;;;7.57;4.00;;;;;;;;;;525937;28;1449;-81
2022/05/15 01:34:10;;;;;;;6.43;3.90;;;;;;;;;;528810;27;1965;-81
2022/05/15 01:34:26;;;;;;;5.88;4.07;;;;;;;;;;528393;28;2142;-81
2022/05/15 01:34:42;;;;;;;7.85;4.45;;;;;;;;;;527001;28;945;-81
2022/05/15 01:34:57;;;;;;;8.07;4.40;;;;;;;;;;524115;28;1220;-81
2022/05/15 01:35:13;;;;;;;7.13;4.30;;;;;;;;;;524745;28;1489;-81
2022/05/15 01:35:28;;;;;;;7.90;4.20;;;;;;;;;;526277;28;1030;-81
2022/05/15 01:35:43;;;;;;;7.88;4.10;;;;;;;;;;526166;28;866;-81
2022/05/15 01:35:59;;;;;;;7.03;3.90;;;;;;;;;;526484;28;1531;-81
2022/05/15 01:36:18;;;;;;;6.53;4.00;;;;;;;;;;528318;28;1261;-81
2022/05/15 01:36:34;;;;;;;6.95;3.80;;;;;;;;;;527597;28;1570;-80
2022/05/15 01:36:50;;;;;;;6.57;3.63;;;;;;;;;;529034;27;982;-80
2022/05/15 01:37:05;;;;;;;6.88;4.10;;;;;;;;;;530349;27;886;-80
2022/05/15 01:37:21;;;;;;;6.88;4.10;;;;;;;;;;529610;27;1541;-80
2022/05/15 01:37:36;;;;;;;6.40;3.73;;;;;;;;;;529792;27;1451;-80
2022/05/15 01:37:52;;;;;;;6.15;3.80;;;;;;;;;;527299;27;1710;-80
2022/05/15 01:38:07;;;;;;;5.77;3.77;;;;;;;;;;523973;28;1437;-80
2022/05/15 01:38:22;;;;;;;5.60;3.75;;;;;;;;;;526122;28;1712;-80
2022/05/15 01:38:38;;;;;;;6.33;4.00;;;;;;;;;;526128;28;2015;-80
2022/05/15 01:38:53;;;;;;;7.13;4.10;;;;;;;;;;528077;28;859;-80
2022/05/15 01:39:09;;;;;;;6.32;3.97;;;;;;;;;;525147;28;1460;-80
2022/05/15 01:39:25;;;;;;;7.40;4.10;;;;;;;;;;525880;28;1049;-80
2022/05/15 01:39:41;;;;;;;7.80;4.22;;;;;;;;;;525390;28;1718;-80
2022/05/15 01:39:56;;;;;;;6.20;4.17;;;;;;;;;;526489;28;1435;-80
2022/05/15 01:40:13;;;;;;;6.53;4.20;;;;;;;;;;529871;27;1555;-80
2022/05/15 01:40:29;;;;;;;6.78;3.95;;;;;;;;;;530102;27;1480;-80
2022/05/15 01:40:46;;;;;;;6.05;3.85;;;;;;;;;;529038;27;1050;-80
2022/05/15 01:41:01;;;;;;;5.93;4.00;;;;;;;;;;529605;27;1534;-80
2022/05/15 01:41:17;;;;;;;6.28;4.10;;;;;;;;;;529785;27;1459;-80
2022/05/15 01:41:33;;;;;;;5.95;4.03;;;;;;;;;;528793;27;1510;-80
2022/05/15 01:41:48;;;;;;;6.07;3.95;;;;;;;;;;527345;28;1483;-80
2022/05/15 01:42:05;;;;;;;8.43;4.17;;;;;;;;;;527585;28;1590;-81
2022/05/15 01:42:20;;;;;;;8.55;4.10;;;;;;;;;;527094;28;859;-81
2022/05/15 01:42:37;;;;;;;8.02;4.15;;;;;;;;;;526006;28;930;-81
2022/05/15 01:42:52;;;;;;;8.13;4.30;;;;;;;;;;526323;28;926;-81
2022/05/15 01:43:08;;;;;;;7.10;3.97;;;;;;;;;;526047;28;1459;-81
2022/05/15 01:43:23;;;;;;;8.87;3.90;;;;;;;;;;526022;28;1317;-80
2022/05/15 01:43:40;;;;;;;8.45;3.92;;;;;;;;;;528448;28;1549;-80
2022/05/15 01:43:56;;;;;;;5.93;3.97;;;;;;;;;;527857;28;1241;-80
2022/05/15 01:44:11;;;;;;;6.65;3.90;;;;;;;;;;527144;28;812;-80
2022/05/15 01:44:27;;;;;;;7.63;3.90;;;;;;;;;;528163;28;957;-80
2022/05/15 01:44:42;;;;;;;7.43;4.07;;;;;;;;;;528169;28;990;-80
2022/05/15 01:44:58;;;;;;;8.07;4.20;;;;;;;;;;525336;28;1523;-80
2022/05/15 01:45:15;;;;;;;8.00;4.10;;;;;;;;;;526203;28;1506;-81
2022/05/15 01:45:31;;;;;;;7.50;4.18;;;;;;;;;;525909;28;1356;-81
2022/05/15 01:45:46;;;;;;;6.97;4.13;;;;;;;;;;525912;28;1166;-81